FVMN weather

Mana Pools Airport
Mana Pools, Mashonaland West Province, Zimbabwe

Public forecast

Using degrees Celsius for public forecast. Weather courtesy of forecast.io.

METAR (pilot weather report)

Report is more than 6 hours old.

Closest report is Kariba International Airport, 53.5 nm (99.2 km) SSW. Retrieved 2019/07/22 12:00 UTC (16 hours ago):

FVKB 221200Z 12003KT CAVOK 27/09 Q1022 NOSIG

TAF (pilot weather forecast)

Forecast is more than 12 hours old.

Closest forecast is Royal Zambesi Lodge Airstrip, 5.5 nm (10.1 km) WNW. Retrieved 2019/07/22 00:00 UTC (1 day ago):

TAF FLRZ 222200Z 2300/2406 VRB03KT CAVOK